createdAt,value
2023-05-02T00:02:06.638Z,2.07
2023-05-02T00:04:34.804Z,2.60
2023-05-02T00:07:02.761Z,3.83
2023-05-02T00:09:32.038Z,4.10
2023-05-02T00:11:59.971Z,4.67
2023-05-02T00:14:27.822Z,4.63
2023-05-02T00:16:55.775Z,3.80
2023-05-02T00:19:23.682Z,3.43
2023-05-02T00:21:51.739Z,4.13
2023-05-02T00:24:19.702Z,2.53
2023-05-02T00:26:48.962Z,3.90
2023-05-02T00:29:17.310Z,3.17
2023-05-02T00:31:45.168Z,2.93
2023-05-02T00:34:13.089Z,4.00
2023-05-02T00:36:41.148Z,4.17
2023-05-02T00:39:09.834Z,2.37
2023-05-02T00:41:37.768Z,8.50
2023-05-02T00:44:07.236Z,2.97
2023-05-02T00:46:35.222Z,3.00
2023-05-02T00:49:03.181Z,4.30
2023-05-02T00:51:31.116Z,2.00
2023-05-02T00:53:59.019Z,1.90
2023-05-02T00:56:26.900Z,2.63
2023-05-02T00:58:54.827Z,1.93
2023-05-02T01:01:31.005Z,3.73
2023-05-02T01:04:05.901Z,2.30
2023-05-02T01:06:42.226Z,4.20
2023-05-02T01:09:18.594Z,2.30
2023-05-02T01:11:51.225Z,3.37
2023-05-02T01:14:19.139Z,2.93
2023-05-02T01:16:48.406Z,3.00
2023-05-02T01:19:22.565Z,3.90
2023-05-02T01:21:50.435Z,2.97
2023-05-02T01:24:21.531Z,3.73
2023-05-02T01:27:02.669Z,2.47
2023-05-02T01:29:32.081Z,1.77
2023-05-02T01:32:00.071Z,3.23
2023-05-02T01:34:28.147Z,2.03
2023-05-02T01:36:56.015Z,2.20
2023-05-02T01:39:24.225Z,1.93
2023-05-02T01:41:53.488Z,1.40
2023-05-02T01:44:21.543Z,1.70
2023-05-02T01:46:50.849Z,2.10
2023-05-02T01:49:18.765Z,1.93
2023-05-02T01:51:48.242Z,2.93
2023-05-02T01:54:17.150Z,3.77
2023-05-02T01:56:45.616Z,2.23
2023-05-02T01:59:15.368Z,1.97
2023-05-02T02:01:43.632Z,4.33
2023-05-02T02:04:14.169Z,1.90
2023-05-02T02:06:43.523Z,3.47
2023-05-02T02:09:11.548Z,2.30
2023-05-02T02:11:43.998Z,3.17
2023-05-02T02:14:16.078Z,2.90
2023-05-02T02:16:43.996Z,2.27
2023-05-02T02:19:15.467Z,2.57
2023-05-02T02:21:44.248Z,2.03
2023-05-02T02:24:12.117Z,3.47
2023-05-02T02:26:40.022Z,3.47
2023-05-02T02:29:07.898Z,8.37
2023-05-02T02:31:36.117Z,1.90
2023-05-02T02:34:04.251Z,2.50
2023-05-02T02:36:35.452Z,2.53
2023-05-02T02:39:14.949Z,2.30
2023-05-02T02:41:45.948Z,5.93
2023-05-02T02:44:21.508Z,1.80
2023-05-02T02:46:51.754Z,4.63
2023-05-02T02:49:24.986Z,3.07
2023-05-02T02:51:59.652Z,4.33
2023-05-02T02:54:32.133Z,1.93
2023-05-02T02:57:02.868Z,2.00
2023-05-02T02:59:32.800Z,2.00
2023-05-02T03:02:03.681Z,4.23
2023-05-02T03:04:32.391Z,4.07
2023-05-02T03:07:01.728Z,4.07
2023-05-02T03:09:33.619Z,2.20
2023-05-02T03:12:01.534Z,3.10
2023-05-02T03:14:29.391Z,1.87
2023-05-02T03:16:57.280Z,5.13
2023-05-02T03:19:25.180Z,2.20
2023-05-02T03:21:53.056Z,3.40
2023-05-02T03:24:22.320Z,2.20
2023-05-02T03:26:50.222Z,2.07
2023-05-02T03:29:18.077Z,2.63
2023-05-02T03:31:46.069Z,3.13
2023-05-02T03:34:14.027Z,4.27
2023-05-02T03:36:41.903Z,6.00
2023-05-02T03:39:09.780Z,3.13
2023-05-02T03:41:39.018Z,2.43
2023-05-02T03:44:06.861Z,2.20
2023-05-02T03:46:34.845Z,3.93
2023-05-02T03:49:02.811Z,3.87
2023-05-02T03:51:30.650Z,4.53
2023-05-02T03:53:58.541Z,2.40
2023-05-02T03:56:26.480Z,2.40
2023-05-02T03:58:55.744Z,6.10
2023-05-02T04:01:23.705Z,2.43
2023-05-02T04:03:51.726Z,4.90
2023-05-02T04:06:19.641Z,4.20
2023-05-02T04:08:47.533Z,2.73
2023-05-02T04:11:15.706Z,2.60
2023-05-02T04:13:43.532Z,3.17
2023-05-02T04:16:13.012Z,2.83
2023-05-02T04:18:41.269Z,6.23
2023-05-02T04:21:09.841Z,4.63
2023-05-02T04:23:37.788Z,2.63
2023-05-02T04:26:05.989Z,3.60
2023-05-02T04:28:33.939Z,3.83
2023-05-02T04:31:03.299Z,3.27
2023-05-02T04:33:32.695Z,4.27
2023-05-02T04:36:01.220Z,3.77
2023-05-02T04:38:29.126Z,6.70
2023-05-02T04:40:57.078Z,4.87
2023-05-02T04:43:25.059Z,2.87
2023-05-02T04:45:53.053Z,6.37
2023-05-02T04:48:21.723Z,4.00
2023-05-02T04:50:51.029Z,3.30
2023-05-02T04:53:19.024Z,3.17
2023-05-02T04:55:46.909Z,10.60
2023-05-02T04:58:14.766Z,7.07
2023-05-02T05:00:42.647Z,3.17
2023-05-02T05:03:10.762Z,3.10
2023-05-02T05:05:38.931Z,4.80
2023-05-02T05:08:08.873Z,3.00
2023-05-02T05:10:36.823Z,5.30
2023-05-02T05:13:05.437Z,4.03
2023-05-02T05:15:33.344Z,4.53
2023-05-02T05:18:01.324Z,5.30
2023-05-02T05:20:29.196Z,5.43
2023-05-02T05:22:57.199Z,3.47
2023-05-02T05:25:27.013Z,2.83
2023-05-02T05:27:55.852Z,3.63
2023-05-02T05:30:23.768Z,4.00
2023-05-02T05:32:51.776Z,4.07
2023-05-02T05:35:19.740Z,2.20
2023-05-02T05:37:47.651Z,3.17
2023-05-02T05:40:16.860Z,2.97
2023-05-02T05:42:46.135Z,4.77
2023-05-02T05:45:14.912Z,5.30
2023-05-02T05:47:42.884Z,4.60
2023-05-02T05:50:11.340Z,3.37
2023-05-02T05:52:39.265Z,2.97
2023-05-02T05:55:08.311Z,3.07
2023-05-02T05:57:36.410Z,6.80
2023-05-02T06:00:07.410Z,5.73
2023-05-02T06:02:35.491Z,5.37
2023-05-02T06:05:03.657Z,4.40
2023-05-02T06:07:31.743Z,5.97
2023-05-02T06:09:59.967Z,2.70
2023-05-02T06:12:28.199Z,3.63
2023-05-02T06:14:56.098Z,5.67
2023-05-02T06:17:26.577Z,3.33
2023-05-02T06:19:54.767Z,4.03
2023-05-02T06:22:22.676Z,8.77
2023-05-02T06:24:50.548Z,4.63
2023-05-02T06:27:18.514Z,5.30
2023-05-02T06:29:46.426Z,3.20
2023-05-02T06:32:14.354Z,2.83
2023-05-02T06:34:43.728Z,5.17
2023-05-02T06:37:12.101Z,3.20
2023-05-02T06:39:40.054Z,5.87
2023-05-02T06:42:07.922Z,2.87
2023-05-02T06:44:35.848Z,3.50
2023-05-02T06:47:05.503Z,2.90
2023-05-02T06:49:33.552Z,2.83
2023-05-02T06:52:02.784Z,8.17
2023-05-02T06:54:30.655Z,3.97
2023-05-02T06:56:59.013Z,5.00
2023-05-02T06:59:26.974Z,2.23
2023-05-02T07:01:54.880Z,5.63
2023-05-02T07:04:22.993Z,2.27
2023-05-02T07:06:51.176Z,6.67
2023-05-02T07:09:20.452Z,2.43
2023-05-02T07:11:49.251Z,5.10
2023-05-02T07:14:17.120Z,4.20
2023-05-02T07:16:45.226Z,2.67
2023-05-02T07:19:13.204Z,2.73
2023-05-02T07:21:41.333Z,4.60
2023-05-02T07:24:09.225Z,2.93
2023-05-02T07:26:38.565Z,2.83
2023-05-02T07:29:07.143Z,3.20
2023-05-02T07:31:35.109Z,5.97
2023-05-02T07:34:03.016Z,4.70
2023-05-02T07:36:32.637Z,5.03
2023-05-02T07:39:00.975Z,5.90
2023-05-02T07:41:28.988Z,4.00
2023-05-02T07:43:58.416Z,3.60
2023-05-02T07:46:26.816Z,6.67
2023-05-02T07:48:54.991Z,4.00
2023-05-02T07:51:23.015Z,4.13
2023-05-02T07:53:53.141Z,10.60
2023-05-02T07:56:21.320Z,8.63
2023-05-02T07:58:50.111Z,5.90
2023-05-02T08:01:19.369Z,5.07
2023-05-02T08:03:47.777Z,11.20
2023-05-02T08:06:15.742Z,7.27
2023-05-02T08:08:43.716Z,6.13
2023-05-02T08:11:11.674Z,6.00
2023-05-02T08:13:40.002Z,4.77
2023-05-02T08:16:09.151Z,5.20
2023-05-02T08:18:38.555Z,6.00
2023-05-02T08:21:06.774Z,4.77
2023-05-02T08:23:34.860Z,4.70
2023-05-02T08:26:02.879Z,5.30
2023-05-02T08:28:31.124Z,8.50
2023-05-02T08:30:59.192Z,5.20
2023-05-02T08:33:27.430Z,5.00
2023-05-02T08:35:56.797Z,4.90
2023-05-02T08:38:24.772Z,5.30
2023-05-02T08:40:52.722Z,5.47
2023-05-02T08:43:20.863Z,4.47
2023-05-02T08:45:48.810Z,5.30
2023-05-02T08:48:17.404Z,4.57
2023-05-02T08:50:48.320Z,4.67
2023-05-02T08:53:17.766Z,5.00
2023-05-02T08:55:46.181Z,5.37
2023-05-02T08:58:15.529Z,8.03
2023-05-02T09:00:44.919Z,6.07
2023-05-02T09:03:17.963Z,8.40
2023-05-02T09:05:45.827Z,10.67
2023-05-02T09:08:13.780Z,5.50
2023-05-02T09:10:43.168Z,7.80
2023-05-02T09:13:30.254Z,4.63
2023-05-02T09:16:03.614Z,8.17
2023-05-02T09:18:32.432Z,9.00
2023-05-02T09:21:01.212Z,8.00
2023-05-02T09:23:36.087Z,5.03
2023-05-02T09:26:17.960Z,4.27
2023-05-02T09:28:46.596Z,7.20
2023-05-02T09:31:22.926Z,3.83
2023-05-02T09:34:00.100Z,6.10
2023-05-02T09:36:27.963Z,6.90
2023-05-02T09:38:56.346Z,5.10
2023-05-02T09:41:25.608Z,3.60
2023-05-02T09:43:56.561Z,5.43
2023-05-02T09:46:24.471Z,4.53
2023-05-02T09:48:56.284Z,3.70
2023-05-02T09:51:24.763Z,4.23
2023-05-02T09:53:52.685Z,8.33
2023-05-02T09:56:22.141Z,4.00
2023-05-02T09:58:52.306Z,3.93
2023-05-02T10:01:20.611Z,5.40
2023-05-02T10:03:49.150Z,3.40
2023-05-02T10:06:17.690Z,3.70
2023-05-02T10:08:47.558Z,3.60
2023-05-02T10:11:15.546Z,3.33
2023-05-02T10:13:43.475Z,2.90
2023-05-02T10:16:13.794Z,2.10
2023-05-02T10:18:43.847Z,2.53
2023-05-02T10:21:12.906Z,2.73
2023-05-02T10:23:43.426Z,2.60
2023-05-02T10:26:12.177Z,3.70
2023-05-02T10:28:40.152Z,4.43
2023-05-02T10:31:08.117Z,4.17
2023-05-02T10:33:37.472Z,2.53
2023-05-02T10:36:06.156Z,2.20
2023-05-02T10:38:34.130Z,2.27
2023-05-02T10:41:03.099Z,2.10
2023-05-02T10:43:33.344Z,2.53
2023-05-02T10:46:03.409Z,2.10
2023-05-02T10:48:31.301Z,2.60
2023-05-02T10:51:02.376Z,2.77
2023-05-02T10:53:34.758Z,3.97
2023-05-02T10:56:18.719Z,1.50
2023-05-02T10:58:47.184Z,2.10
2023-05-02T11:01:38.173Z,5.90
2023-05-02T11:04:07.204Z,8.17
2023-05-02T11:06:36.966Z,2.03
2023-05-02T11:09:34.250Z,2.10
2023-05-02T11:12:04.895Z,2.17
2023-05-02T11:14:49.684Z,2.10
2023-05-02T11:17:21.147Z,2.40
2023-05-02T11:20:26.560Z,2.30
2023-05-02T11:22:56.640Z,2.80
2023-05-02T11:25:40.210Z,2.20
2023-05-02T11:28:09.461Z,3.73
2023-05-02T11:30:44.783Z,3.40
2023-05-02T11:33:17.598Z,2.60
2023-05-02T11:35:46.834Z,2.50
2023-05-02T11:38:20.560Z,2.92
2023-05-02T11:41:00.868Z,2.58
2023-05-02T11:43:31.578Z,2.40
2023-05-02T11:46:02.171Z,2.85
2023-05-02T11:48:30.489Z,2.55
2023-05-02T11:50:59.016Z,3.88
2023-05-02T11:53:29.460Z,3.08
2023-05-02T11:55:58.299Z,4.15
2023-05-02T11:58:27.037Z,2.42
2023-05-02T12:00:54.993Z,2.05
2023-05-02T12:03:24.191Z,2.67
2023-05-02T12:05:52.651Z,2.40
2023-05-02T12:08:24.875Z,3.47
2023-05-02T12:10:56.544Z,2.80
2023-05-02T12:13:25.082Z,2.80
2023-05-02T12:15:53.403Z,2.83
2023-05-02T12:18:23.511Z,2.38
2023-05-02T12:20:52.263Z,3.20
2023-05-02T12:23:20.958Z,2.00
2023-05-02T12:25:49.551Z,2.55
2023-05-02T12:28:20.531Z,4.22
2023-05-02T12:30:49.592Z,2.20
2023-05-02T12:33:17.923Z,1.88
2023-05-02T12:35:47.430Z,2.40
2023-05-02T12:38:16.701Z,3.13
2023-05-02T12:40:52.138Z,1.90
2023-05-02T12:43:22.029Z,1.67
2023-05-02T12:45:50.061Z,2.83
2023-05-02T12:48:22.170Z,3.13
2023-05-02T12:50:50.235Z,1.75
2023-05-02T12:53:18.129Z,1.60
2023-05-02T12:55:46.932Z,2.03
2023-05-02T12:58:14.835Z,1.75
2023-05-02T13:00:45.733Z,1.55
2023-05-02T13:03:15.684Z,1.73
2023-05-02T13:05:43.613Z,1.80
2023-05-02T13:08:11.570Z,2.80
2023-05-02T13:10:39.491Z,4.10
2023-05-02T13:13:07.825Z,1.75
2023-05-02T13:15:35.704Z,2.38
2023-05-02T13:18:05.240Z,2.10
2023-05-02T13:20:33.245Z,5.97
2023-05-02T13:23:01.151Z,2.50
2023-05-02T13:25:29.070Z,4.15
2023-05-02T13:27:57.093Z,2.20
2023-05-02T13:30:25.028Z,2.10
2023-05-02T13:32:52.964Z,2.05
2023-05-02T13:35:22.244Z,2.30
2023-05-02T13:37:50.176Z,2.10
2023-05-02T13:40:18.166Z,2.30
2023-05-02T13:42:46.076Z,2.58
2023-05-02T13:45:14.614Z,3.33
2023-05-02T13:47:42.529Z,2.00
2023-05-02T13:50:10.621Z,2.30
2023-05-02T13:52:39.852Z,1.80
2023-05-02T13:55:08.265Z,1.90
2023-05-02T13:57:36.178Z,2.67
2023-05-02T14:00:04.775Z,2.33
2023-05-02T14:02:32.911Z,25.88
2023-05-02T14:05:00.943Z,3.03
2023-05-02T14:07:29.479Z,2.08
2023-05-02T14:09:58.904Z,4.00
2023-05-02T14:12:26.976Z,4.97
2023-05-02T14:14:54.873Z,2.40
2023-05-02T14:17:25.385Z,4.45
2023-05-02T14:19:53.371Z,2.35
2023-05-02T14:22:22.483Z,2.42
2023-05-02T14:24:50.416Z,3.67
2023-05-02T14:27:19.711Z,2.50
2023-05-02T14:29:47.707Z,5.43
2023-05-02T14:32:15.816Z,4.28
2023-05-02T14:34:43.895Z,6.57
2023-05-02T14:37:11.933Z,2.55
2023-05-02T14:39:40.442Z,3.22
2023-05-02T14:42:08.441Z,2.40
2023-05-02T14:44:37.879Z,2.25
2023-05-02T14:47:05.921Z,2.25
2023-05-02T14:49:33.885Z,2.55
2023-05-02T14:52:01.721Z,2.40
2023-05-02T14:54:30.308Z,4.47
2023-05-02T14:56:59.645Z,2.85
2023-05-02T14:59:29.713Z,3.85
2023-05-02T15:01:59.010Z,5.32
2023-05-02T15:04:27.942Z,2.40
2023-05-02T15:06:57.155Z,3.67
2023-05-02T15:09:26.627Z,3.20
2023-05-02T15:11:54.643Z,4.57
2023-05-02T15:14:22.517Z,2.70
2023-05-02T15:16:50.861Z,3.20
2023-05-02T15:19:20.322Z,2.45
2023-05-02T15:21:49.829Z,4.55
2023-05-02T15:24:17.736Z,2.53
2023-05-02T15:26:45.707Z,3.63
2023-05-02T15:29:13.546Z,2.78
2023-05-02T15:31:41.477Z,4.00
2023-05-02T15:34:09.593Z,3.72
2023-05-02T15:36:38.857Z,4.13
2023-05-02T15:39:06.782Z,3.60
2023-05-02T15:41:34.722Z,3.95
2023-05-02T15:44:02.600Z,6.35
2023-05-02T15:46:30.497Z,6.65
2023-05-02T15:48:58.406Z,7.97
2023-05-02T15:51:26.913Z,5.00
2023-05-02T15:53:56.576Z,6.70
2023-05-02T15:56:24.459Z,8.80
2023-05-02T15:58:52.341Z,5.60
2023-05-02T16:01:24.169Z,9.90
2023-05-02T16:03:52.203Z,6.90
2023-05-02T16:06:20.188Z,7.43
2023-05-02T16:08:48.096Z,5.70
2023-05-02T16:11:17.489Z,6.80
2023-05-02T16:13:45.370Z,7.50
2023-05-02T16:16:13.234Z,9.15
2023-05-02T16:18:41.220Z,7.70
2023-05-02T16:21:09.274Z,10.35
2023-05-02T16:23:37.164Z,6.68
2023-05-02T16:26:05.117Z,5.30
2023-05-02T16:28:34.385Z,4.82
2023-05-02T16:31:07.580Z,7.20
2023-05-02T16:33:35.614Z,7.28
2023-05-02T16:36:03.871Z,5.88
2023-05-02T16:38:31.807Z,6.43
2023-05-02T16:40:59.697Z,4.88
2023-05-02T16:43:27.579Z,7.82
2023-05-02T16:46:03.346Z,7.78
2023-05-02T16:48:31.296Z,5.15
2023-05-02T16:51:00.985Z,5.35
2023-05-02T16:53:30.598Z,7.95
2023-05-02T16:55:59.549Z,8.05
2023-05-02T16:58:29.206Z,6.00
2023-05-02T17:00:57.251Z,8.57
2023-05-02T17:03:26.864Z,4.50
2023-05-02T17:05:54.970Z,5.10
2023-05-02T17:08:22.870Z,5.65
2023-05-02T17:10:51.510Z,6.85
2023-05-02T17:13:19.545Z,6.78
2023-05-02T17:15:47.516Z,5.10
2023-05-02T17:18:15.704Z,7.15
2023-05-02T17:20:46.013Z,8.38
2023-05-02T17:23:14.618Z,8.30
2023-05-02T17:25:42.796Z,11.75
2023-05-02T17:28:10.714Z,16.33
2023-05-02T17:30:38.626Z,9.70
2023-05-02T17:33:06.824Z,7.80
2023-05-02T17:35:34.770Z,10.77
2023-05-02T17:38:04.029Z,11.23
2023-05-02T17:40:32.018Z,13.30
2023-05-02T17:43:01.674Z,13.18
2023-05-02T17:45:29.962Z,14.13
2023-05-02T17:47:57.987Z,12.10
2023-05-02T17:50:26.213Z,10.40
2023-05-02T17:52:54.440Z,11.50
2023-05-02T17:55:23.702Z,10.85
2023-05-02T17:57:51.618Z,13.25
2023-05-02T18:00:20.102Z,11.43
2023-05-02T18:02:48.081Z,11.48
2023-05-02T18:05:17.511Z,10.85
2023-05-02T18:07:45.491Z,10.23
2023-05-02T18:10:13.441Z,11.90
2023-05-02T18:12:42.692Z,11.83
2023-05-02T18:15:10.849Z,12.43
2023-05-02T18:17:38.871Z,12.83
2023-05-02T18:20:10.109Z,13.77
2023-05-02T18:22:38.191Z,11.67
2023-05-02T18:25:06.897Z,10.30
2023-05-02T18:27:35.026Z,10.90
2023-05-02T18:30:04.607Z,13.67
2023-05-02T18:32:34.538Z,11.33
2023-05-02T18:35:02.804Z,13.63
2023-05-02T18:37:31.998Z,12.73
2023-05-02T18:39:59.884Z,15.07
2023-05-02T18:42:27.869Z,16.03
2023-05-02T18:44:55.779Z,13.93
2023-05-02T18:47:25.534Z,11.43
2023-05-02T18:49:56.353Z,17.63
2023-05-02T18:52:25.477Z,12.40
2023-05-02T18:54:53.375Z,12.70
2023-05-02T18:57:21.622Z,12.27
2023-05-02T18:59:49.660Z,11.43
2023-05-02T19:02:17.533Z,18.07
2023-05-02T19:04:46.893Z,14.37
2023-05-02T19:07:14.754Z,11.13
2023-05-02T19:09:42.627Z,11.53
2023-05-02T19:12:10.657Z,9.73
2023-05-02T19:14:39.657Z,7.30
2023-05-02T19:17:07.728Z,13.60
2023-05-02T19:19:35.662Z,9.77
2023-05-02T19:22:05.090Z,11.30
2023-05-02T19:24:33.683Z,10.37
2023-05-02T19:27:01.638Z,13.63
2023-05-02T19:29:29.522Z,14.43
2023-05-02T19:31:57.602Z,19.53
2023-05-02T19:34:26.084Z,18.53
2023-05-02T19:36:53.970Z,13.67
2023-05-02T19:39:23.479Z,15.53
2023-05-02T19:41:51.368Z,17.93
2023-05-02T19:44:21.291Z,19.83
2023-05-02T19:46:49.139Z,15.83
2023-05-02T19:49:17.022Z,14.17
2023-05-02T19:51:45.133Z,22.57
2023-05-02T19:54:13.134Z,17.87
2023-05-02T19:56:43.168Z,19.53
2023-05-02T19:59:11.253Z,16.63
2023-05-02T20:01:39.197Z,18.47
2023-05-02T20:04:07.269Z,22.23
2023-05-02T20:06:35.287Z,15.43
2023-05-02T20:09:03.828Z,21.20
2023-05-02T20:11:32.854Z,27.37
2023-05-02T20:14:02.172Z,22.60
2023-05-02T20:16:31.442Z,26.53
2023-05-02T20:18:59.491Z,25.87
2023-05-02T20:21:27.915Z,23.17
2023-05-02T20:23:55.807Z,19.80
2023-05-02T20:26:23.747Z,19.53
2023-05-02T20:28:51.663Z,17.57
2023-05-02T20:31:21.054Z,20.83
2023-05-02T20:33:49.094Z,21.63
2023-05-02T20:36:18.148Z,25.00
2023-05-02T20:38:48.013Z,24.50
2023-05-02T20:41:15.934Z,24.20
2023-05-02T20:43:44.932Z,27.57
2023-05-02T20:46:13.620Z,30.03
2023-05-02T20:48:43.010Z,23.40
2023-05-02T20:51:10.984Z,28.77
2023-05-02T20:53:39.117Z,26.60
2023-05-02T20:56:07.353Z,27.20
2023-05-02T20:58:35.245Z,25.37
2023-05-02T21:01:03.425Z,32.97
2023-05-02T21:03:32.184Z,37.57
2023-05-02T21:06:01.535Z,38.87
2023-05-02T21:08:29.469Z,40.00
2023-05-02T21:10:57.382Z,33.20
2023-05-02T21:13:25.320Z,35.60
2023-05-02T21:15:53.326Z,44.57
2023-05-02T21:18:22.285Z,33.67
2023-05-02T21:20:50.191Z,37.13
2023-05-02T21:23:19.478Z,39.53
2023-05-02T21:25:47.405Z,35.63
2023-05-02T21:28:15.303Z,35.87
2023-05-02T21:30:43.195Z,34.57
2023-05-02T21:33:11.097Z,28.90
2023-05-02T21:35:39.039Z,35.03
2023-05-02T21:38:07.641Z,34.20
2023-05-02T21:40:38.093Z,41.30
2023-05-02T21:43:06.013Z,27.63
2023-05-02T21:45:34.784Z,35.80
2023-05-02T21:48:02.793Z,34.07
2023-05-02T21:50:30.704Z,32.07
2023-05-02T21:52:58.719Z,42.17
2023-05-02T21:55:26.780Z,32.67
2023-05-02T21:57:56.087Z,29.47
2023-05-02T22:00:24.277Z,27.73
2023-05-02T22:02:52.457Z,34.07
2023-05-02T22:05:21.602Z,27.10
2023-05-02T22:07:49.660Z,26.97
2023-05-02T22:10:17.914Z,29.47
2023-05-02T22:12:46.530Z,29.27
2023-05-02T22:15:16.291Z,29.50
2023-05-02T22:17:45.984Z,24.43
2023-05-02T22:20:14.313Z,23.37
2023-05-02T22:22:42.485Z,24.13
2023-05-02T22:25:10.893Z,25.50
2023-05-02T22:27:38.834Z,27.77
2023-05-02T22:30:08.345Z,22.40
2023-05-02T22:32:37.663Z,21.53
2023-05-02T22:35:06.879Z,22.80
2023-05-02T22:37:34.792Z,20.57
2023-05-02T22:40:03.016Z,21.80
2023-05-02T22:42:31.271Z,21.77
2023-05-02T22:44:59.181Z,20.37
2023-05-02T22:47:29.208Z,18.03
2023-05-02T22:49:59.887Z,18.03
2023-05-02T22:52:28.332Z,19.43
2023-05-02T22:54:56.201Z,19.83
2023-05-02T22:57:24.496Z,16.50
2023-05-02T22:59:52.374Z,15.97
2023-05-02T23:02:20.883Z,19.30
2023-05-02T23:04:48.853Z,19.80
2023-05-02T23:07:18.086Z,18.60
2023-05-02T23:09:45.991Z,16.93
2023-05-02T23:12:13.984Z,17.13
2023-05-02T23:14:41.939Z,18.23
2023-05-02T23:17:09.839Z,15.53
2023-05-02T23:19:37.948Z,16.73
2023-05-02T23:22:05.916Z,16.53
2023-05-02T23:24:35.229Z,18.70
2023-05-02T23:27:03.814Z,18.97
2023-05-02T23:29:31.691Z,18.47
2023-05-02T23:31:59.568Z,21.17
2023-05-02T23:34:27.572Z,15.07
2023-05-02T23:36:55.561Z,15.87
2023-05-02T23:39:23.787Z,16.07
2023-05-02T23:41:53.079Z,16.57
2023-05-02T23:44:20.927Z,14.73
2023-05-02T23:46:48.941Z,13.50
2023-05-02T23:49:17.176Z,13.23
2023-05-02T23:51:45.128Z,14.97
2023-05-02T23:54:13.004Z,14.53
2023-05-02T23:56:40.896Z,19.00
2023-05-02T23:59:10.114Z,14.90
